createdAt,value
2016-06-05T18:40:33.230Z,1172
2016-06-05T18:41:33.171Z,1144
2016-06-05T18:42:33.157Z,1140
2016-06-05T18:43:33.520Z,1136
2016-06-05T18:44:33.162Z,1136
2016-06-05T18:45:33.150Z,1132
2016-06-05T18:46:33.137Z,1112
2016-06-05T18:47:33.139Z,1080
2016-06-05T18:48:33.126Z,1040
2016-06-05T18:49:32.972Z,1008
2016-06-05T18:50:33.131Z,968
2016-06-05T18:51:32.979Z,936
2016-06-05T18:52:32.966Z,900
2016-06-05T18:53:33.109Z,876
2016-06-05T18:54:33.097Z,860
2016-06-05T18:55:33.099Z,844
2016-06-05T18:56:33.086Z,816
2016-06-05T18:57:33.089Z,788
2016-06-05T18:58:33.513Z,756
2016-06-05T18:59:32.922Z,732
2016-06-05T19:00:32.768Z,700
2016-06-05T19:01:33.099Z,668
2016-06-05T19:02:33.086Z,644
2016-06-05T19:03:32.776Z,616
2016-06-05T19:04:32.748Z,588
2016-06-05T19:05:32.626Z,564
2016-06-05T19:06:32.925Z,544
2016-06-05T19:07:33.038Z,524
2016-06-05T19:08:32.727Z,508
2016-06-05T19:09:32.902Z,492
2016-06-05T19:10:33.046Z,476
2016-06-05T19:11:32.720Z,464
2016-06-05T19:12:33.020Z,456
2016-06-05T19:13:33.959Z,452
2016-06-05T19:14:33.025Z,448
2016-06-05T19:15:33.012Z,440
2016-06-05T19:16:32.843Z,436
2016-06-05T19:17:32.877Z,428
2016-06-05T19:18:32.848Z,420
2016-06-05T19:19:32.991Z,408
2016-06-05T19:20:32.978Z,396
2016-06-05T19:21:32.997Z,384
2016-06-05T19:22:32.858Z,372
2016-06-05T19:23:32.800Z,364
2016-06-05T19:24:32.958Z,364
2016-06-05T19:25:32.945Z,364
2016-06-05T19:26:32.947Z,364
2016-06-05T19:27:32.935Z,348
2016-06-05T19:28:32.797Z,332
2016-06-05T19:29:32.941Z,312
2016-06-05T19:30:32.958Z,292
2016-06-05T19:31:32.914Z,268
2016-06-05T19:32:32.902Z,252
2016-06-05T19:33:32.919Z,232
2016-06-05T19:34:32.907Z,216
2016-06-05T19:35:32.753Z,200
2016-06-05T19:36:32.896Z,184
2016-06-05T19:37:32.883Z,164
2016-06-05T19:38:32.729Z,144
2016-06-05T19:39:32.873Z,128
2016-06-05T19:40:32.860Z,112
2016-06-05T19:41:32.848Z,104
2016-06-05T19:42:32.850Z,92
2016-06-05T19:43:33.040Z,88
2016-06-05T19:44:32.840Z,84
2016-06-05T19:45:32.827Z,76
2016-06-05T19:46:32.830Z,76
2016-06-05T19:47:32.817Z,68
2016-06-05T19:48:32.803Z,68
2016-06-05T19:49:32.822Z,64
2016-06-05T19:50:32.793Z,60
2016-06-05T19:51:32.796Z,56
2016-06-05T19:52:32.784Z,52
2016-06-05T19:53:32.786Z,48
2016-06-05T19:54:32.772Z,44
2016-06-05T19:55:32.775Z,40
2016-06-05T19:56:32.779Z,36
2016-06-05T19:57:32.766Z,36
2016-06-05T19:58:32.815Z,32
2016-06-05T19:59:32.614Z,32
2016-06-05T20:00:32.741Z,24
2016-06-05T20:01:32.761Z,24
2016-06-05T20:02:32.732Z,20
2016-06-05T20:03:32.782Z,16
2016-06-05T20:04:32.580Z,16
2016-06-05T20:05:32.709Z,16
2016-06-05T20:06:32.711Z,12
2016-06-05T20:07:32.558Z,12
2016-06-05T20:08:32.701Z,12
2016-06-05T20:09:32.719Z,8
2016-06-05T20:10:32.690Z,8
2016-06-05T20:11:32.679Z,8
2016-06-05T20:12:32.665Z,4
2016-06-05T20:13:32.371Z,4
2016-06-05T20:14:32.654Z,4
2016-06-05T20:15:32.690Z,4
2016-06-05T20:16:32.645Z,4
2016-06-05T20:17:32.632Z,4
2016-06-05T20:18:32.634Z,4
2016-06-05T20:19:32.636Z,0
2016-06-05T20:20:32.624Z,4
2016-06-05T20:21:32.612Z,4
2016-06-05T20:22:32.598Z,0
2016-06-05T20:23:32.460Z,0
2016-06-05T20:24:32.589Z,4
2016-06-05T20:25:32.591Z,4
2016-06-05T20:26:32.593Z,0
2016-06-05T20:27:32.580Z,0
2016-06-05T20:28:32.631Z,0
2016-06-05T20:29:32.555Z,0
2016-06-05T20:30:32.542Z,0
2016-06-05T20:31:32.544Z,0
2016-06-05T20:32:32.577Z,0
2016-06-05T20:33:32.533Z,0
2016-06-05T20:34:32.366Z,0
2016-06-05T20:35:32.368Z,0
2016-06-05T20:36:32.510Z,0
2016-06-05T20:43:12.077Z,0
2016-06-05T20:43:24.233Z,0
2016-06-05T20:44:25.814Z,0
2016-06-05T20:45:24.520Z,0
2016-06-05T20:46:24.522Z,0
2016-06-05T20:47:24.493Z,0
2016-06-05T20:48:24.496Z,0
2016-06-05T20:49:24.499Z,0
2016-06-05T20:50:24.487Z,0
2016-06-05T20:51:24.520Z,0
2016-06-05T20:52:24.476Z,0
2016-06-05T20:53:24.479Z,0
2016-06-05T20:54:24.465Z,0
2016-06-05T20:55:24.297Z,0
2016-06-05T20:56:24.440Z,0
